createdAt,value
2019-04-03T00:02:13.843Z,11.00
2019-04-03T00:04:43.799Z,10.90
2019-04-03T00:07:13.671Z,10.90
2019-04-03T00:09:43.560Z,10.90
2019-04-03T00:12:13.241Z,10.90
2019-04-03T00:14:43.281Z,10.80
2019-04-03T00:17:31.303Z,10.80
2019-04-03T00:20:01.164Z,10.80
2019-04-03T00:22:31.088Z,10.80
2019-04-03T00:25:00.947Z,10.70
2019-04-03T00:27:32.853Z,10.70
2019-04-03T00:30:02.828Z,10.70
2019-04-03T00:32:32.747Z,10.70
2019-04-03T00:35:02.703Z,10.60
2019-04-03T00:37:32.490Z,10.60
2019-04-03T00:40:02.365Z,10.60
2019-04-03T00:42:32.147Z,10.50
2019-04-03T00:45:02.007Z,10.50
2019-04-03T00:47:32.791Z,10.60
2019-04-03T00:50:02.659Z,10.60
2019-04-03T00:52:32.487Z,10.60
2019-04-03T00:55:02.346Z,10.60
2019-04-03T00:57:33.182Z,10.60
2019-04-03T01:00:03.420Z,10.50
2019-04-03T01:02:34.860Z,10.50
2019-04-03T01:05:05.751Z,10.50
2019-04-03T01:07:38.896Z,10.40
2019-04-03T01:10:08.838Z,10.40
2019-04-03T01:12:38.723Z,10.40
2019-04-03T01:15:08.785Z,10.30
2019-04-03T01:17:38.676Z,10.30
2019-04-03T01:20:08.667Z,10.30
2019-04-03T01:22:38.645Z,10.30
2019-04-03T01:25:09.376Z,10.20
2019-04-03T01:27:41.234Z,10.20
2019-04-03T01:30:12.120Z,10.20
2019-04-03T01:32:42.175Z,10.20
2019-04-03T01:35:12.186Z,10.20
2019-04-03T01:37:41.880Z,10.10
2019-04-03T01:40:12.727Z,10.20
2019-04-03T01:42:42.460Z,10.20
2019-04-03T01:45:12.231Z,10.10
2019-04-03T01:47:42.158Z,10.10
2019-04-03T01:50:11.929Z,10.10
2019-04-03T01:52:41.763Z,10.00
2019-04-03T01:55:11.480Z,10.00
2019-04-03T01:57:41.377Z,10.00
2019-04-03T02:00:11.873Z,10.00
2019-04-03T02:02:41.707Z,10.00
2019-04-03T02:05:12.745Z,10.00
2019-04-03T02:07:44.689Z,10.00
2019-04-03T02:10:19.948Z,10.00
2019-04-03T02:12:51.322Z,10.00
2019-04-03T02:15:22.143Z,9.90
2019-04-03T02:17:54.895Z,9.90
2019-04-03T02:20:26.755Z,10.00
2019-04-03T02:22:56.126Z,10.00
2019-04-03T02:25:25.924Z,10.00
2019-04-03T02:27:55.795Z,10.00
2019-04-03T02:30:25.586Z,10.00
2019-04-03T02:32:56.783Z,10.00
2019-04-03T02:35:26.848Z,10.00
2019-04-03T02:37:56.631Z,10.10
2019-04-03T02:40:26.477Z,10.10
2019-04-03T02:42:56.193Z,10.00
2019-04-03T02:45:26.171Z,10.10
2019-04-03T02:47:55.941Z,10.10
2019-04-03T02:50:26.162Z,10.10
2019-04-03T02:52:58.070Z,10.00
2019-04-03T02:55:27.968Z,10.10
2019-04-03T02:57:57.889Z,10.10
2019-04-03T03:00:31.492Z,10.00
2019-04-03T03:02:59.236Z,10.00
2019-04-03T03:05:29.653Z,10.00
2019-04-03T03:07:59.674Z,10.00
2019-04-03T03:10:31.712Z,10.00
2019-04-03T03:13:02.383Z,10.10
2019-04-03T03:15:33.740Z,10.00
2019-04-03T03:18:03.859Z,10.00
2019-04-03T03:20:39.000Z,9.90
2019-04-03T03:23:07.333Z,9.90
2019-04-03T03:25:37.849Z,9.90
2019-04-03T03:28:08.365Z,9.90
2019-04-03T03:30:45.972Z,9.90
2019-04-03T03:33:27.301Z,9.90
2019-04-03T03:35:46.828Z,9.90
2019-04-03T03:38:15.783Z,9.90
2019-04-03T03:40:48.618Z,9.80
2019-04-03T03:43:17.849Z,9.80
2019-04-03T03:45:51.404Z,9.80
2019-04-03T03:48:20.160Z,9.80
2019-04-03T03:50:50.032Z,9.80
2019-04-03T03:53:20.056Z,9.70
2019-04-03T03:55:57.504Z,9.70
2019-04-03T03:58:25.530Z,9.70
2019-04-03T04:00:59.502Z,9.60
2019-04-03T04:03:27.453Z,9.70
2019-04-03T04:05:57.675Z,9.70
2019-04-03T04:08:30.023Z,9.70
2019-04-03T04:11:01.050Z,9.70
2019-04-03T04:13:31.904Z,9.60
2019-04-03T04:16:04.296Z,9.70
2019-04-03T04:18:34.237Z,9.60
2019-04-03T04:21:04.569Z,9.60
2019-04-03T04:23:35.858Z,9.60
2019-04-03T04:26:05.745Z,9.60
2019-04-03T04:28:39.304Z,9.60
2019-04-03T04:31:07.925Z,9.60
2019-04-03T04:33:37.773Z,9.60
2019-04-03T04:36:07.616Z,9.60
2019-04-03T04:38:37.481Z,9.60
2019-04-03T04:41:07.380Z,9.60
2019-04-03T04:43:38.965Z,9.60
2019-04-03T04:46:09.343Z,9.60
2019-04-03T04:48:39.532Z,9.60
2019-04-03T04:51:10.471Z,9.60
2019-04-03T04:53:40.264Z,9.60
2019-04-03T04:56:10.042Z,9.50
2019-04-03T04:58:42.343Z,9.50
2019-04-03T05:01:11.333Z,9.50
2019-04-03T05:03:41.167Z,9.50
2019-04-03T05:06:12.967Z,9.50
2019-04-03T05:08:42.738Z,9.50
2019-04-03T05:11:12.605Z,9.50
2019-04-03T05:13:42.422Z,9.50
2019-04-03T05:16:13.319Z,9.50
2019-04-03T05:18:43.511Z,9.50
2019-04-03T05:21:13.339Z,9.50
2019-04-03T05:23:43.168Z,9.50
2019-04-03T05:26:15.095Z,9.40
2019-04-03T05:28:55.611Z,9.40
2019-04-03T05:31:16.391Z,9.40
2019-04-03T05:33:46.416Z,9.40
2019-04-03T05:36:17.787Z,9.40
2019-04-03T05:38:49.342Z,9.40
2019-04-03T05:41:19.382Z,9.40
2019-04-03T05:43:49.338Z,9.30
2019-04-03T05:46:19.657Z,9.40
2019-04-03T05:48:50.050Z,9.40
2019-04-03T05:51:19.924Z,9.30
2019-04-03T05:53:49.647Z,9.30
2019-04-03T05:56:22.288Z,9.30
2019-04-03T05:58:56.209Z,9.30
2019-04-03T06:01:23.597Z,9.30
2019-04-03T06:03:53.373Z,9.30
2019-04-03T06:06:23.151Z,9.30
2019-04-03T06:08:53.939Z,9.30
2019-04-03T06:11:24.393Z,9.30
2019-04-03T06:13:54.250Z,9.30
2019-04-03T06:16:27.739Z,9.30
2019-04-03T06:19:01.930Z,9.30
2019-04-03T06:21:31.789Z,9.20
2019-04-03T06:24:01.587Z,9.20
2019-04-03T06:26:32.870Z,9.20
2019-04-03T06:29:02.952Z,9.20
2019-04-03T06:31:32.784Z,9.20
2019-04-03T06:34:02.617Z,9.20
2019-04-03T06:36:32.695Z,9.20
2019-04-03T06:39:05.936Z,9.20
2019-04-03T06:41:37.448Z,9.20
2019-04-03T06:44:08.763Z,9.10
2019-04-03T06:46:39.231Z,9.10
2019-04-03T06:49:09.093Z,9.20
2019-04-03T06:51:40.034Z,9.20
2019-04-03T06:54:10.046Z,9.10
2019-04-03T06:56:41.075Z,9.10
2019-04-03T06:59:11.001Z,9.20
2019-04-03T07:01:41.928Z,9.20
2019-04-03T07:04:11.782Z,9.20
2019-04-03T07:06:42.799Z,9.10
2019-04-03T07:09:22.638Z,9.20
2019-04-03T07:11:44.804Z,9.20
2019-04-03T07:14:14.749Z,9.20
2019-04-03T07:16:44.520Z,9.20
2019-04-03T07:19:14.424Z,9.20
2019-04-03T07:21:45.381Z,9.20
2019-04-03T07:24:15.087Z,9.20
2019-04-03T07:26:44.994Z,9.20
2019-04-03T07:29:16.919Z,9.20
2019-04-03T07:31:46.281Z,9.20
2019-04-03T07:34:17.400Z,9.20
2019-04-03T07:36:47.571Z,9.20
2019-04-03T07:39:19.097Z,9.20
2019-04-03T07:41:49.506Z,9.30
2019-04-03T07:44:19.197Z,9.20
2019-04-03T07:46:49.016Z,9.20
2019-04-03T07:49:18.695Z,9.20
2019-04-03T07:51:48.662Z,9.20
2019-04-03T07:54:20.175Z,9.20
2019-04-03T07:56:49.980Z,9.20
2019-04-03T07:59:19.775Z,9.20
2019-04-03T08:01:49.594Z,9.20
2019-04-03T08:04:21.822Z,9.10
2019-04-03T08:06:53.825Z,9.10
2019-04-03T08:09:23.704Z,9.20
2019-04-03T08:11:53.794Z,9.10
2019-04-03T08:14:25.120Z,9.10
2019-04-03T08:16:56.861Z,9.20
2019-04-03T08:19:26.500Z,9.20
2019-04-03T08:21:57.311Z,9.20
2019-04-03T08:24:33.126Z,9.20
2019-04-03T08:27:03.061Z,9.10
2019-04-03T08:29:34.716Z,9.10
2019-04-03T08:32:04.328Z,9.10
2019-04-03T08:34:34.196Z,9.10
2019-04-03T08:37:04.116Z,9.20
2019-04-03T08:39:33.995Z,9.10
2019-04-03T08:42:03.805Z,9.10
2019-04-03T08:44:35.103Z,9.20
2019-04-03T08:47:06.556Z,9.20
2019-04-03T08:49:37.621Z,9.20
2019-04-03T08:52:07.459Z,9.20
2019-04-03T08:54:37.328Z,9.20
2019-04-03T08:57:07.116Z,9.20
2019-04-03T08:59:36.907Z,9.20
2019-04-03T09:02:08.204Z,9.10
2019-04-03T09:04:38.120Z,9.10
2019-04-03T09:07:08.061Z,9.10
2019-04-03T09:09:37.964Z,9.10
2019-04-03T09:12:08.044Z,9.10
2019-04-03T09:14:38.264Z,9.10
2019-04-03T09:17:08.128Z,9.10
2019-04-03T09:19:41.080Z,9.10
2019-04-03T09:22:09.548Z,9.10
2019-04-03T09:24:39.728Z,9.10
2019-04-03T09:27:10.071Z,9.10
2019-04-03T09:29:40.738Z,9.10
2019-04-03T09:32:10.476Z,9.10
2019-04-03T09:34:40.406Z,9.10
2019-04-03T09:37:10.299Z,9.10
2019-04-03T09:39:44.866Z,9.20
2019-04-03T09:42:14.960Z,9.20
2019-04-03T09:44:44.702Z,9.10
2019-04-03T09:47:16.515Z,9.20
2019-04-03T09:49:46.383Z,9.20
2019-04-03T09:52:16.196Z,9.20
2019-04-03T09:54:46.312Z,9.20
2019-04-03T09:57:16.576Z,9.20
2019-04-03T09:59:46.559Z,9.20
2019-04-03T10:02:16.925Z,9.20
2019-04-03T10:04:47.883Z,9.30
2019-04-03T10:07:17.647Z,9.30
2019-04-03T10:09:47.501Z,9.30
2019-04-03T10:12:17.366Z,9.30
2019-04-03T10:14:47.195Z,9.30
2019-04-03T10:17:17.015Z,9.40
2019-04-03T10:19:46.840Z,9.40
2019-04-03T10:22:16.630Z,9.40
2019-04-03T10:24:48.023Z,9.40
2019-04-03T10:27:18.104Z,9.40
2019-04-03T10:29:50.267Z,9.40
2019-04-03T10:32:19.443Z,9.40
2019-04-03T10:34:49.307Z,9.50
2019-04-03T10:37:19.233Z,9.50
2019-04-03T10:39:52.430Z,9.50
2019-04-03T10:42:20.444Z,9.50
2019-04-03T10:44:50.243Z,9.50
2019-04-03T10:47:25.076Z,9.60
2019-04-03T10:49:52.604Z,9.60
2019-04-03T10:52:22.626Z,9.60
2019-04-03T10:54:52.527Z,9.60
2019-04-03T10:57:25.100Z,9.70
2019-04-03T10:59:55.271Z,9.70
2019-04-03T11:02:25.405Z,9.70
2019-04-03T11:04:55.475Z,9.80
2019-04-03T11:07:25.751Z,9.80
2019-04-03T11:09:56.670Z,9.80
2019-04-03T11:12:27.545Z,9.80
2019-04-03T11:14:57.303Z,9.80
2019-04-03T11:17:27.206Z,9.90
2019-04-03T11:19:57.812Z,9.90
2019-04-03T11:22:39.176Z,9.90
2019-04-03T11:25:01.249Z,9.90
2019-04-03T11:27:42.202Z,9.90
2019-04-03T11:30:14.071Z,10.00
2019-04-03T11:32:43.065Z,10.00
2019-04-03T11:35:13.822Z,10.00
2019-04-03T11:37:43.760Z,10.10
2019-04-03T11:40:17.343Z,10.10
2019-04-03T11:42:46.858Z,10.10
2019-04-03T11:45:17.304Z,10.20
2019-04-03T11:47:47.373Z,10.20
2019-04-03T11:50:18.139Z,10.30
2019-04-03T11:52:48.146Z,10.30
2019-04-03T11:55:18.035Z,10.30
2019-04-03T11:57:49.334Z,10.30
2019-04-03T12:00:22.980Z,10.40
2019-04-03T12:02:53.324Z,10.40
2019-04-03T12:05:23.228Z,10.40
2019-04-03T12:07:55.480Z,10.50
2019-04-03T12:10:26.056Z,10.50
2019-04-03T12:12:56.077Z,10.50
2019-04-03T12:15:26.076Z,10.50
2019-04-03T12:17:55.840Z,10.60
2019-04-03T12:20:25.646Z,10.60
2019-04-03T12:22:55.830Z,10.60
2019-04-03T12:25:27.863Z,10.60
2019-04-03T12:27:57.675Z,10.60
2019-04-03T12:30:28.116Z,10.70
2019-04-03T12:32:59.569Z,10.70
2019-04-03T12:35:30.846Z,10.70
2019-04-03T12:38:00.857Z,10.70
2019-04-03T12:40:32.744Z,10.70
2019-04-03T12:43:02.193Z,10.70
2019-04-03T12:45:33.544Z,10.80
2019-04-03T12:48:03.613Z,10.70
2019-04-03T12:50:33.608Z,10.70
2019-04-03T12:53:03.835Z,10.70
2019-04-03T12:55:35.482Z,10.70
2019-04-03T12:58:05.746Z,10.80
2019-04-03T13:00:36.251Z,10.80
2019-04-03T13:03:06.066Z,10.80
2019-04-03T13:05:38.062Z,10.80
2019-04-03T13:08:08.045Z,10.80
2019-04-03T13:10:52.361Z,10.90
2019-04-03T13:13:26.550Z,10.80
2019-04-03T13:16:01.746Z,10.80
2019-04-03T13:18:33.306Z,10.80
2019-04-03T13:21:03.218Z,10.80
2019-04-03T13:23:33.412Z,10.90
2019-04-03T13:26:04.223Z,10.90
2019-04-03T13:28:36.142Z,11.00
2019-04-03T13:31:05.522Z,11.10
2019-04-03T13:33:37.690Z,11.10
2019-04-03T13:36:07.307Z,11.20
2019-04-03T13:38:37.191Z,11.30
2019-04-03T13:41:09.300Z,11.30
2019-04-03T13:43:38.496Z,11.40
2019-04-03T13:46:08.350Z,11.40
2019-04-03T13:48:38.170Z,11.50
2019-04-03T13:51:08.457Z,11.50
2019-04-03T13:53:38.901Z,11.50
2019-04-03T13:56:11.192Z,11.50
2019-04-03T13:58:40.565Z,11.50
2019-04-03T14:01:10.445Z,11.50
2019-04-03T14:03:40.188Z,11.50
2019-04-03T14:06:10.133Z,11.50
2019-04-03T14:08:40.011Z,11.50
2019-04-03T14:11:10.935Z,11.50
2019-04-03T14:13:42.586Z,11.60
2019-04-03T14:16:19.949Z,11.60
2019-04-03T14:18:43.705Z,11.60
2019-04-03T14:21:14.047Z,11.70
2019-04-03T14:23:44.273Z,11.70
2019-04-03T14:26:14.716Z,11.70
2019-04-03T14:28:46.378Z,11.70
2019-04-03T14:31:17.457Z,11.80
2019-04-03T14:33:48.941Z,11.80
2019-04-03T14:36:19.598Z,11.80
2019-04-03T14:38:49.540Z,11.80
2019-04-03T14:41:19.511Z,11.80
2019-04-03T14:43:50.893Z,11.90
2019-04-03T14:46:20.723Z,11.90
2019-04-03T14:48:50.562Z,11.90
2019-04-03T14:51:20.479Z,12.00
2019-04-03T14:53:52.623Z,12.00
2019-04-03T14:56:21.779Z,12.10
2019-04-03T14:58:51.642Z,12.10
2019-04-03T15:01:21.519Z,12.20
2019-04-03T15:03:51.399Z,12.20
2019-04-03T15:06:21.221Z,12.20
2019-04-03T15:08:53.871Z,12.20
2019-04-03T15:11:24.089Z,12.20
2019-04-03T15:13:54.107Z,12.20
2019-04-03T15:16:24.281Z,12.10
2019-04-03T15:18:54.678Z,12.10
2019-04-03T15:21:25.166Z,12.00
2019-04-03T15:23:55.440Z,12.00
2019-04-03T15:26:27.075Z,11.90
2019-04-03T15:28:56.919Z,11.90
2019-04-03T15:31:26.756Z,11.90
2019-04-03T15:33:56.752Z,11.80
2019-04-03T15:36:26.718Z,11.80
2019-04-03T15:38:58.802Z,11.80
2019-04-03T15:41:33.107Z,11.70
2019-04-03T15:44:00.554Z,11.80
2019-04-03T15:46:33.971Z,11.70
2019-04-03T15:49:02.094Z,11.70
2019-04-03T15:51:32.129Z,11.70
2019-04-03T15:54:02.249Z,11.60
2019-04-03T15:56:32.258Z,11.60
2019-04-03T15:59:02.274Z,11.50
2019-04-03T16:01:32.322Z,11.50
2019-04-03T16:04:02.240Z,11.50
2019-04-03T16:06:33.449Z,11.40
2019-04-03T16:09:05.606Z,11.40
2019-04-03T16:11:35.835Z,11.30
2019-04-03T16:14:05.885Z,11.20
2019-04-03T16:16:36.005Z,11.20
2019-04-03T16:19:08.419Z,11.20
2019-04-03T16:21:38.745Z,11.30
2019-04-03T16:24:12.375Z,11.20
2019-04-03T16:26:40.631Z,11.30
2019-04-03T16:29:10.849Z,11.40
2019-04-03T16:31:45.228Z,11.40
2019-04-03T16:34:15.045Z,11.40
2019-04-03T16:36:47.992Z,11.50
2019-04-03T16:39:17.880Z,11.50
2019-04-03T16:41:47.807Z,11.50
2019-04-03T16:44:17.992Z,11.50
2019-04-03T16:46:48.935Z,11.60
2019-04-03T16:49:21.574Z,11.50
2019-04-03T16:51:50.321Z,11.60
2019-04-03T16:54:22.391Z,11.50
2019-04-03T16:56:52.212Z,11.50
2019-04-03T16:59:22.055Z,11.50
2019-04-03T17:01:52.214Z,11.50
2019-04-03T17:04:27.200Z,11.50
2019-04-03T17:06:54.687Z,11.40
2019-04-03T17:09:24.639Z,11.40
2019-04-03T17:11:54.818Z,11.30
2019-04-03T17:14:25.285Z,11.30
2019-04-03T17:16:56.159Z,11.30
2019-04-03T17:19:26.161Z,11.30
2019-04-03T17:21:56.072Z,11.30
2019-04-03T17:24:25.926Z,11.30
2019-04-03T17:26:58.766Z,11.30
2019-04-03T17:29:27.144Z,11.30
2019-04-03T17:31:58.200Z,11.30
2019-04-03T17:34:28.399Z,11.30
2019-04-03T17:36:58.266Z,11.30
2019-04-03T17:39:28.127Z,11.30
2019-04-03T17:41:58.035Z,11.30
2019-04-03T17:44:27.859Z,11.20
2019-04-03T17:46:57.579Z,11.20
2019-04-03T17:49:28.543Z,11.20
2019-04-03T17:51:58.892Z,11.20
2019-04-03T17:54:28.690Z,11.20
2019-04-03T17:56:58.523Z,11.20
2019-04-03T17:59:28.374Z,11.20
2019-04-03T18:01:58.224Z,11.20
2019-04-03T18:04:27.964Z,11.10
2019-04-03T18:06:58.052Z,11.10
2019-04-03T18:09:28.941Z,11.00
2019-04-03T18:11:59.006Z,11.10
2019-04-03T18:14:28.889Z,11.00
2019-04-03T18:17:01.099Z,11.00
2019-04-03T18:19:37.322Z,11.00
2019-04-03T18:22:02.711Z,11.00
2019-04-03T18:24:32.523Z,11.00
2019-04-03T18:27:03.123Z,11.00
2019-04-03T18:29:33.116Z,11.00
2019-04-03T18:32:03.016Z,11.00
2019-04-03T18:34:32.792Z,11.00
2019-04-03T18:37:04.084Z,11.10
2019-04-03T18:39:34.079Z,11.00
2019-04-03T18:42:04.256Z,11.00
2019-04-03T18:44:34.123Z,11.10
2019-04-03T18:47:04.959Z,11.00
2019-04-03T18:49:35.442Z,11.00
2019-04-03T18:52:07.713Z,11.00
2019-04-03T18:54:36.735Z,11.00
2019-04-03T18:57:06.483Z,10.90
2019-04-03T18:59:36.240Z,11.00
2019-04-03T19:02:06.089Z,11.00
2019-04-03T19:04:37.468Z,10.90
2019-04-03T19:07:07.314Z,10.90
2019-04-03T19:09:37.167Z,10.90
2019-04-03T19:12:08.633Z,10.90
2019-04-03T19:14:38.392Z,10.90
2019-04-03T19:17:08.318Z,10.90
2019-04-03T19:19:38.111Z,10.90
2019-04-03T19:22:07.923Z,10.90
2019-04-03T19:24:37.766Z,10.90
2019-04-03T19:27:07.716Z,10.80
2019-04-03T19:29:37.573Z,10.80
2019-04-03T19:32:07.450Z,10.80
2019-04-03T19:34:37.259Z,10.70
2019-04-03T19:37:07.124Z,10.70
2019-04-03T19:39:38.209Z,10.70
2019-04-03T19:42:08.125Z,10.70
2019-04-03T19:44:37.925Z,10.70
2019-04-03T19:47:07.792Z,10.70
2019-04-03T19:49:40.071Z,10.70
2019-04-03T19:52:09.036Z,10.70
2019-04-03T19:54:38.941Z,10.70
2019-04-03T19:57:08.797Z,10.70
2019-04-03T19:59:38.652Z,10.60
2019-04-03T20:02:09.613Z,10.70
2019-04-03T20:04:41.052Z,10.70
2019-04-03T20:07:11.865Z,10.60
2019-04-03T20:09:41.744Z,10.70
2019-04-03T20:12:11.541Z,10.60
2019-04-03T20:14:42.480Z,10.60
2019-04-03T20:17:12.827Z,10.60
2019-04-03T20:19:42.667Z,10.60
2019-04-03T20:22:12.487Z,10.60
2019-04-03T20:24:43.759Z,10.60
2019-04-03T20:27:14.917Z,10.60
2019-04-03T20:29:45.351Z,10.60
2019-04-03T20:32:15.196Z,10.60
2019-04-03T20:34:45.377Z,10.50
2019-04-03T20:37:15.419Z,10.50
2019-04-03T20:39:45.287Z,10.50
2019-04-03T20:42:16.184Z,10.50
2019-04-03T20:44:48.733Z,10.50
2019-04-03T20:47:18.515Z,10.50
2019-04-03T20:49:48.354Z,10.50
2019-04-03T20:52:18.110Z,10.50
2019-04-03T20:54:47.846Z,10.50
2019-04-03T20:57:17.774Z,10.50
2019-04-03T20:59:58.642Z,10.50
2019-04-03T21:02:22.401Z,10.50
2019-04-03T21:04:52.263Z,10.50
2019-04-03T21:07:24.464Z,10.50
2019-04-03T21:09:53.607Z,10.50
2019-04-03T21:12:23.462Z,10.40
2019-04-03T21:14:53.251Z,10.40
2019-04-03T21:17:24.046Z,10.40
2019-04-03T21:19:54.064Z,10.40
2019-04-03T21:22:24.053Z,10.40
2019-04-03T21:24:56.341Z,10.40
2019-04-03T21:27:25.368Z,10.40
2019-04-03T21:29:58.030Z,10.30
2019-04-03T21:32:28.811Z,10.30
2019-04-03T21:34:58.266Z,10.30
2019-04-03T21:37:28.112Z,10.30
2019-04-03T21:40:00.996Z,10.30
2019-04-03T21:42:29.379Z,10.20
2019-04-03T21:45:02.235Z,10.20
2019-04-03T21:47:30.930Z,10.20
2019-04-03T21:50:03.478Z,10.20
2019-04-03T21:52:32.325Z,10.20
2019-04-03T21:55:04.839Z,10.20
2019-04-03T21:57:38.392Z,10.10
2019-04-03T22:00:13.170Z,10.10
2019-04-03T22:02:45.188Z,10.10
2019-04-03T22:05:15.216Z,10.10
2019-04-03T22:07:45.001Z,10.10
2019-04-03T22:10:15.016Z,10.00
2019-04-03T22:12:48.001Z,10.10
2019-04-03T22:15:18.730Z,10.00
2019-04-03T22:17:48.597Z,10.00
2019-04-03T22:20:19.060Z,10.10
2019-04-03T22:22:48.873Z,10.00
2019-04-03T22:25:18.759Z,10.00
2019-04-03T22:27:48.593Z,10.00
2019-04-03T22:30:20.004Z,10.00
2019-04-03T22:32:50.888Z,10.00
2019-04-03T22:35:20.739Z,10.00
2019-04-03T22:37:50.693Z,10.00
2019-04-03T22:40:20.437Z,9.90
2019-04-03T22:42:50.312Z,9.90
2019-04-03T22:45:20.618Z,9.90
2019-04-03T22:47:50.548Z,9.90
2019-04-03T22:50:21.027Z,9.90
2019-04-03T22:52:52.331Z,9.90
2019-04-03T22:55:24.150Z,9.90
2019-04-03T22:57:53.999Z,9.80
2019-04-03T23:00:25.779Z,9.80
2019-04-03T23:02:56.205Z,9.90
2019-04-03T23:05:26.087Z,9.80
2019-04-03T23:07:55.817Z,9.80
2019-04-03T23:10:27.933Z,9.80
2019-04-03T23:13:00.211Z,9.80
2019-04-03T23:15:30.089Z,9.80
2019-04-03T23:17:59.890Z,9.80
2019-04-03T23:20:29.739Z,9.70
2019-04-03T23:22:59.603Z,9.70
2019-04-03T23:25:29.747Z,9.70
2019-04-03T23:28:02.688Z,9.60
2019-04-03T23:30:31.567Z,9.60
2019-04-03T23:33:01.454Z,9.60
2019-04-03T23:35:31.296Z,9.60
2019-04-03T23:38:01.155Z,9.60
2019-04-03T23:40:34.425Z,9.60
2019-04-03T23:43:03.416Z,9.60
2019-04-03T23:45:34.253Z,9.50
2019-04-03T23:48:05.104Z,9.50
2019-04-03T23:50:34.963Z,9.50
2019-04-03T23:53:04.821Z,9.50
2019-04-03T23:55:36.292Z,9.50
2019-04-03T23:58:06.163Z,9.50
